createdAt,value
2019-05-09T00:01:04.068Z,9.00
2019-05-09T00:03:33.665Z,11.03
2019-05-09T00:06:04.590Z,10.10
2019-05-09T00:08:34.004Z,9.43
2019-05-09T00:11:03.820Z,9.77
2019-05-09T00:13:34.120Z,8.83
2019-05-09T00:16:03.811Z,8.43
2019-05-09T00:18:33.678Z,9.03
2019-05-09T00:21:09.524Z,10.87
2019-05-09T00:23:38.710Z,9.33
2019-05-09T00:26:07.940Z,10.30
2019-05-09T00:28:39.248Z,10.03
2019-05-09T00:31:18.729Z,8.03
2019-05-09T00:33:53.403Z,10.30
2019-05-09T00:36:23.241Z,10.13
2019-05-09T00:38:53.719Z,12.33
2019-05-09T00:41:23.939Z,10.23
2019-05-09T00:43:59.711Z,10.83
2019-05-09T00:46:37.957Z,10.13
2019-05-09T00:49:14.293Z,11.10
2019-05-09T00:51:43.772Z,7.97
2019-05-09T00:54:13.566Z,11.03
2019-05-09T00:56:43.571Z,10.30
2019-05-09T00:59:13.499Z,9.50
2019-05-09T01:01:43.729Z,9.60
2019-05-09T01:04:13.577Z,8.90
2019-05-09T01:06:43.465Z,9.50
2019-05-09T01:09:13.737Z,8.80
2019-05-09T01:11:43.972Z,9.57
2019-05-09T01:14:14.232Z,9.30
2019-05-09T01:16:43.995Z,9.20
2019-05-09T01:19:14.074Z,6.97
2019-05-09T01:21:43.953Z,8.53
2019-05-09T01:24:13.904Z,8.63
2019-05-09T01:26:43.632Z,8.17
2019-05-09T01:29:13.770Z,8.53
2019-05-09T01:31:43.695Z,8.23
2019-05-09T01:34:17.917Z,8.50
2019-05-09T01:37:06.801Z,9.03
2019-05-09T01:39:36.671Z,7.53
2019-05-09T01:42:06.448Z,9.20
2019-05-09T01:44:35.697Z,9.00
2019-05-09T01:47:04.988Z,8.87
2019-05-09T01:49:34.479Z,9.30
2019-05-09T01:52:03.936Z,10.13
2019-05-09T01:54:34.837Z,9.63
2019-05-09T01:57:04.257Z,9.60
2019-05-09T01:59:34.091Z,10.23
2019-05-09T02:02:08.246Z,10.40
2019-05-09T02:04:34.706Z,10.17
2019-05-09T02:07:04.428Z,11.53
2019-05-09T02:09:34.463Z,12.13
2019-05-09T02:12:04.247Z,12.53
2019-05-09T02:14:43.839Z,12.37
2019-05-09T02:17:54.874Z,12.30
2019-05-09T02:20:13.635Z,12.87
2019-05-09T02:22:43.532Z,11.67
2019-05-09T02:25:13.781Z,13.67
2019-05-09T02:27:43.693Z,13.27
2019-05-09T02:30:15.243Z,13.80
2019-05-09T02:32:50.178Z,13.90
2019-05-09T02:35:19.388Z,13.87
2019-05-09T02:37:49.881Z,14.40
2019-05-09T02:40:19.177Z,14.37
2019-05-09T02:42:49.085Z,14.60
2019-05-09T02:45:19.435Z,14.17
2019-05-09T02:47:49.147Z,14.83
2019-05-09T02:50:19.613Z,15.83
2019-05-09T02:52:49.012Z,16.67
2019-05-09T02:55:18.631Z,16.47
2019-05-09T02:57:49.632Z,15.53
2019-05-09T03:00:39.513Z,16.67
2019-05-09T03:03:21.302Z,14.53
2019-05-09T03:05:50.698Z,16.30
2019-05-09T03:08:19.908Z,16.43
2019-05-09T03:10:49.387Z,16.33
2019-05-09T03:13:19.359Z,16.07
2019-05-09T03:15:50.581Z,15.50
2019-05-09T03:18:19.775Z,16.67
2019-05-09T03:21:10.840Z,17.23
2019-05-09T03:23:40.099Z,16.10
2019-05-09T03:26:10.960Z,17.17
2019-05-09T03:29:05.011Z,17.17
2019-05-09T03:31:34.753Z,16.80
2019-05-09T03:34:04.032Z,15.90
2019-05-09T03:36:33.262Z,16.40
2019-05-09T03:39:02.457Z,16.80
2019-05-09T03:41:31.700Z,17.07
2019-05-09T03:44:00.921Z,16.60
2019-05-09T03:46:47.671Z,17.03
2019-05-09T03:49:18.018Z,16.60
2019-05-09T03:51:48.230Z,17.60
2019-05-09T03:54:18.408Z,15.70
2019-05-09T03:56:52.500Z,15.77
2019-05-09T03:59:21.745Z,17.03
2019-05-09T04:01:50.922Z,17.50
2019-05-09T04:04:20.144Z,17.80
2019-05-09T04:06:49.345Z,17.73
2019-05-09T04:09:18.577Z,16.83
2019-05-09T04:11:48.550Z,15.83
2019-05-09T04:14:21.671Z,16.67
2019-05-09T04:16:50.917Z,17.67
2019-05-09T04:19:20.122Z,16.83
2019-05-09T04:21:49.339Z,17.40
2019-05-09T04:24:18.632Z,18.53
2019-05-09T04:26:57.547Z,16.47
2019-05-09T04:29:28.571Z,16.33
2019-05-09T04:31:58.459Z,17.57
2019-05-09T04:34:27.751Z,18.07
2019-05-09T04:36:57.614Z,17.33
2019-05-09T04:39:28.418Z,17.00
2019-05-09T04:42:03.458Z,18.70
2019-05-09T04:44:37.555Z,18.33
2019-05-09T04:47:08.741Z,18.87
2019-05-09T04:49:41.084Z,18.10
2019-05-09T04:52:08.719Z,19.00
2019-05-09T04:54:38.518Z,18.93
2019-05-09T04:57:08.034Z,20.27
2019-05-09T04:59:37.496Z,18.60
2019-05-09T05:02:27.600Z,18.37
2019-05-09T05:04:58.553Z,19.70
2019-05-09T05:07:28.687Z,20.40
2019-05-09T05:09:58.352Z,19.50
2019-05-09T05:12:27.805Z,20.20
2019-05-09T05:14:58.075Z,21.07
2019-05-09T05:17:28.312Z,20.40
2019-05-09T05:19:58.863Z,21.80
2019-05-09T05:22:42.544Z,21.87
2019-05-09T05:25:11.758Z,22.93
2019-05-09T05:27:40.949Z,23.33
2019-05-09T05:30:10.739Z,23.93
2019-05-09T05:32:57.691Z,23.63
2019-05-09T05:35:38.384Z,24.27
2019-05-09T05:38:08.559Z,22.03
2019-05-09T05:40:45.579Z,20.60
2019-05-09T05:43:08.975Z,23.63
2019-05-09T05:45:47.936Z,24.83
2019-05-09T05:48:21.184Z,25.57
2019-05-09T05:50:50.508Z,26.17
2019-05-09T05:53:19.944Z,26.37
2019-05-09T05:55:52.521Z,28.97
2019-05-09T05:58:20.350Z,26.27
2019-05-09T06:00:49.537Z,28.73
2019-05-09T06:03:18.879Z,26.93
2019-05-09T06:05:51.453Z,28.37
2019-05-09T06:08:18.917Z,27.93
2019-05-09T06:10:48.373Z,29.87
2019-05-09T06:13:18.327Z,29.10
2019-05-09T06:15:48.154Z,28.00
2019-05-09T06:18:18.443Z,28.90
2019-05-09T06:20:48.628Z,29.07
2019-05-09T06:23:18.066Z,28.23
2019-05-09T06:25:48.425Z,26.47
2019-05-09T06:28:18.343Z,26.90
2019-05-09T06:30:47.820Z,28.03
2019-05-09T06:33:18.131Z,27.50
2019-05-09T06:35:48.103Z,29.60
2019-05-09T06:38:18.777Z,27.57
2019-05-09T06:40:48.285Z,28.70
2019-05-09T06:43:23.207Z,29.33
2019-05-09T06:46:10.945Z,28.07
2019-05-09T06:48:40.582Z,28.53
2019-05-09T06:51:09.807Z,25.13
2019-05-09T06:53:39.033Z,27.30
2019-05-09T06:56:08.252Z,25.07
2019-05-09T06:58:38.307Z,28.57
2019-05-09T07:01:25.472Z,29.73
2019-05-09T07:03:59.392Z,27.07
2019-05-09T07:06:33.238Z,28.43
2019-05-09T07:09:12.568Z,27.77
2019-05-09T07:11:41.885Z,28.80
2019-05-09T07:14:31.837Z,28.20
2019-05-09T07:16:59.026Z,27.17
2019-05-09T07:19:28.317Z,26.67
2019-05-09T07:22:01.893Z,26.00
2019-05-09T07:24:31.586Z,27.13
2019-05-09T07:27:00.850Z,27.27
2019-05-09T07:29:30.984Z,27.23
2019-05-09T07:32:09.809Z,26.97
2019-05-09T07:34:47.430Z,25.70
2019-05-09T07:37:18.620Z,26.30
2019-05-09T07:39:48.441Z,27.50
2019-05-09T07:42:18.106Z,23.70
2019-05-09T07:44:52.075Z,24.27
2019-05-09T07:47:18.241Z,23.63
2019-05-09T07:49:48.227Z,24.10
2019-05-09T07:52:18.622Z,23.40
2019-05-09T07:54:48.408Z,24.57
2019-05-09T07:57:18.269Z,23.40
2019-05-09T07:59:47.927Z,22.87
2019-05-09T08:02:17.750Z,23.70
2019-05-09T08:04:48.847Z,21.57
2019-05-09T08:07:17.954Z,22.30
2019-05-09T08:09:47.657Z,22.90
2019-05-09T08:12:17.926Z,22.60
2019-05-09T08:15:06.665Z,23.57
2019-05-09T08:17:18.262Z,23.00
2019-05-09T08:19:48.417Z,22.27
2019-05-09T08:22:21.275Z,22.23
2019-05-09T08:24:48.920Z,21.70
2019-05-09T08:27:18.127Z,21.77
2019-05-09T08:29:47.955Z,21.97
2019-05-09T08:32:18.078Z,22.20
2019-05-09T08:34:48.205Z,22.57
2019-05-09T08:37:17.717Z,22.43
2019-05-09T08:39:48.444Z,22.20
2019-05-09T08:42:20.123Z,16.67
2019-05-09T08:44:48.918Z,16.43
2019-05-09T08:47:18.532Z,19.50
2019-05-09T08:49:58.815Z,17.57
2019-05-09T08:52:28.794Z,16.90
2019-05-09T08:54:58.770Z,16.73
2019-05-09T08:57:28.868Z,16.53
2019-05-09T08:59:59.076Z,17.50
2019-05-09T09:02:28.548Z,17.03
2019-05-09T09:04:58.414Z,16.73
2019-05-09T09:07:29.741Z,14.67
2019-05-09T09:09:58.717Z,16.17
2019-05-09T09:12:34.245Z,13.93
2019-05-09T09:14:58.901Z,16.97
2019-05-09T09:17:28.176Z,17.70
2019-05-09T09:19:58.232Z,17.33
2019-05-09T09:22:28.481Z,16.60
2019-05-09T09:24:58.659Z,16.43
2019-05-09T09:27:28.469Z,16.83
2019-05-09T09:29:58.712Z,16.13
2019-05-09T09:32:28.585Z,17.03
2019-05-09T09:34:58.709Z,17.47
2019-05-09T09:37:37.672Z,15.63
2019-05-09T09:39:59.098Z,16.77
2019-05-09T09:42:28.467Z,15.37
2019-05-09T09:44:58.506Z,13.47
2019-05-09T09:47:28.700Z,13.73
2019-05-09T09:50:00.273Z,13.90
2019-05-09T09:52:29.818Z,14.73
2019-05-09T09:54:59.885Z,12.73
2019-05-09T09:57:29.123Z,12.97
2019-05-09T10:00:01.943Z,13.03
2019-05-09T10:02:33.989Z,12.67
2019-05-09T10:05:03.204Z,13.60
2019-05-09T10:07:32.432Z,13.50
2019-05-09T10:10:01.709Z,13.07
2019-05-09T10:12:31.021Z,14.07
2019-05-09T10:15:08.361Z,11.53
2019-05-09T10:17:58.266Z,11.47
2019-05-09T10:20:31.784Z,11.40
2019-05-09T10:23:11.191Z,11.93
2019-05-09T10:25:31.968Z,9.57
2019-05-09T10:28:01.148Z,9.43
2019-05-09T10:30:32.257Z,10.00
2019-05-09T10:33:01.459Z,9.23
2019-05-09T10:35:30.715Z,9.90
2019-05-09T10:37:59.897Z,9.93
2019-05-09T10:40:29.164Z,11.03
2019-05-09T10:43:08.228Z,10.40
2019-05-09T10:46:18.426Z,9.47
2019-05-09T10:48:55.314Z,8.83
2019-05-09T10:51:24.552Z,7.70
2019-05-09T10:53:53.777Z,7.33
2019-05-09T10:56:22.998Z,7.23
2019-05-09T10:58:52.232Z,6.90
2019-05-09T11:01:21.533Z,7.80
2019-05-09T11:03:50.760Z,7.13
2019-05-09T11:06:19.973Z,7.60
2019-05-09T11:08:49.188Z,5.40
2019-05-09T11:11:18.624Z,4.87
2019-05-09T11:13:48.432Z,3.00
2019-05-09T11:16:18.475Z,5.20
2019-05-09T11:18:48.426Z,4.53
2019-05-09T11:21:19.224Z,3.83
2019-05-09T11:23:49.184Z,4.37
2019-05-09T11:26:18.600Z,3.30
2019-05-09T11:28:47.858Z,3.60
2019-05-09T11:31:18.437Z,3.17
2019-05-09T11:33:48.534Z,4.07
2019-05-09T11:36:21.210Z,3.03
2019-05-09T11:38:49.741Z,2.97
2019-05-09T11:41:19.543Z,2.47
2019-05-09T11:43:48.928Z,2.40
2019-05-09T11:46:18.541Z,2.17
2019-05-09T11:48:47.875Z,2.63
2019-05-09T11:51:20.527Z,1.80
2019-05-09T11:53:48.826Z,2.10
2019-05-09T11:56:18.317Z,2.13
2019-05-09T11:58:48.354Z,1.90
2019-05-09T12:01:18.843Z,2.00
2019-05-09T12:03:52.055Z,2.10
2019-05-09T12:06:20.356Z,2.00
2019-05-09T12:08:49.769Z,2.13
2019-05-09T12:11:19.690Z,1.93
2019-05-09T12:13:49.296Z,1.80
2019-05-09T12:16:19.013Z,1.63
2019-05-09T12:18:49.104Z,1.70
2019-05-09T12:21:19.524Z,1.90
2019-05-09T12:23:49.896Z,1.77
2019-05-09T12:26:19.350Z,1.50
2019-05-09T12:28:49.053Z,1.70
2019-05-09T12:31:18.515Z,1.57
2019-05-09T12:33:48.611Z,1.30
2019-05-09T12:36:19.197Z,1.60
2019-05-09T12:38:49.966Z,1.20
2019-05-09T12:41:19.669Z,1.33
2019-05-09T12:43:49.067Z,1.20
2019-05-09T12:46:18.308Z,1.27
2019-05-09T12:48:48.177Z,1.13
2019-05-09T12:51:18.446Z,1.23
2019-05-09T12:53:48.654Z,1.00
2019-05-09T12:56:18.822Z,1.30
2019-05-09T12:58:48.355Z,1.20
2019-05-09T13:01:19.024Z,1.40
2019-05-09T13:03:48.686Z,1.00
2019-05-09T13:06:20.127Z,1.00
2019-05-09T13:08:49.393Z,1.20
2019-05-09T13:11:20.045Z,1.10
2019-05-09T13:13:49.637Z,1.13
2019-05-09T13:16:43.486Z,0.93
2019-05-09T13:19:21.651Z,0.97
2019-05-09T13:21:51.152Z,1.17
2019-05-09T13:24:20.729Z,1.20
2019-05-09T13:26:51.534Z,1.03
2019-05-09T13:29:20.988Z,1.23
2019-05-09T13:31:50.360Z,0.90
2019-05-09T13:34:19.760Z,1.07
2019-05-09T13:36:49.174Z,0.80
2019-05-09T13:39:18.611Z,1.07
2019-05-09T13:41:48.083Z,0.80
2019-05-09T13:44:18.114Z,0.73
2019-05-09T13:46:48.875Z,1.13
2019-05-09T13:49:19.447Z,0.73
2019-05-09T13:51:58.623Z,0.83
2019-05-09T13:54:20.061Z,0.87
2019-05-09T13:56:56.605Z,0.77
2019-05-09T13:59:20.487Z,1.00
2019-05-09T14:01:49.653Z,0.97
2019-05-09T14:04:19.004Z,1.00
2019-05-09T14:06:48.733Z,1.10
2019-05-09T14:09:19.946Z,0.87
2019-05-09T14:11:48.953Z,0.90
2019-05-09T14:14:18.277Z,0.83
2019-05-09T14:16:48.003Z,0.80
2019-05-09T14:19:42.529Z,1.07
2019-05-09T14:21:48.334Z,1.20
2019-05-09T14:24:19.297Z,1.10
2019-05-09T14:26:48.725Z,1.03
2019-05-09T14:29:20.521Z,0.73
2019-05-09T14:31:49.004Z,1.03
2019-05-09T14:34:19.683Z,1.00
2019-05-09T14:36:49.675Z,0.60
2019-05-09T14:39:19.165Z,1.03
2019-05-09T14:41:48.450Z,0.90
2019-05-09T14:44:18.306Z,1.00
2019-05-09T14:46:48.329Z,1.03
2019-05-09T14:49:17.839Z,0.80
2019-05-09T14:51:49.809Z,1.20
2019-05-09T14:54:18.107Z,1.30
2019-05-09T14:56:48.537Z,1.03
2019-05-09T14:59:18.665Z,0.80
2019-05-09T15:01:49.717Z,0.90
2019-05-09T15:04:19.170Z,1.03
2019-05-09T15:06:48.915Z,0.80
2019-05-09T15:09:18.429Z,0.80
2019-05-09T15:11:48.534Z,1.07
2019-05-09T15:14:18.457Z,0.90
2019-05-09T15:16:48.670Z,1.00
2019-05-09T15:19:18.425Z,1.00
2019-05-09T15:21:48.644Z,0.90
2019-05-09T15:24:19.507Z,0.73
2019-05-09T15:26:49.982Z,1.43
2019-05-09T15:29:20.507Z,0.60
2019-05-09T15:31:55.115Z,0.87
2019-05-09T15:34:24.169Z,0.80
2019-05-09T15:36:53.716Z,1.30
2019-05-09T15:39:22.926Z,0.70
2019-05-09T15:41:52.164Z,0.83
2019-05-09T15:44:21.482Z,0.80
2019-05-09T15:46:55.032Z,1.10
2019-05-09T15:49:24.303Z,0.70
2019-05-09T15:51:53.541Z,1.00
2019-05-09T15:54:22.793Z,1.00
2019-05-09T15:56:52.136Z,1.00
2019-05-09T15:59:21.333Z,1.00
2019-05-09T16:01:50.633Z,0.73
2019-05-09T16:04:19.852Z,0.93
2019-05-09T16:06:50.909Z,1.30
2019-05-09T16:09:20.026Z,1.00
2019-05-09T16:11:49.232Z,1.00
2019-05-09T16:14:18.680Z,0.80
2019-05-09T16:16:48.063Z,1.17
2019-05-09T16:19:17.296Z,1.00
2019-05-09T16:21:47.792Z,1.00
2019-05-09T16:24:18.874Z,1.07
2019-05-09T16:26:48.768Z,0.90
2019-05-09T16:29:18.252Z,1.10
2019-05-09T16:31:48.223Z,0.93
2019-05-09T16:34:17.959Z,1.10
2019-05-09T16:36:48.032Z,0.87
2019-05-09T16:39:18.056Z,0.90
2019-05-09T16:41:48.443Z,0.80
2019-05-09T16:44:18.538Z,1.00
2019-05-09T16:46:48.612Z,0.93
2019-05-09T16:49:20.043Z,0.97
2019-05-09T16:51:49.025Z,1.00
2019-05-09T16:54:18.413Z,0.90
2019-05-09T16:56:47.556Z,1.00
2019-05-09T16:59:17.890Z,1.20
2019-05-09T17:01:49.995Z,1.20
2019-05-09T17:04:19.111Z,0.90
2019-05-09T17:06:49.680Z,0.90
2019-05-09T17:09:19.270Z,1.00
2019-05-09T17:11:48.623Z,1.30
2019-05-09T17:14:19.315Z,1.30
2019-05-09T17:16:52.201Z,1.20
2019-05-09T17:19:19.712Z,1.23
2019-05-09T17:21:54.783Z,1.13
2019-05-09T17:24:24.104Z,1.00
2019-05-09T17:26:53.319Z,1.03
2019-05-09T17:29:22.548Z,0.97
2019-05-09T17:31:51.826Z,1.10
2019-05-09T17:34:21.044Z,1.13
2019-05-09T17:36:50.241Z,1.00
2019-05-09T17:39:19.489Z,0.87
2019-05-09T17:41:48.692Z,1.00
2019-05-09T17:44:18.575Z,1.00
2019-05-09T17:46:48.137Z,0.93
2019-05-09T17:49:17.592Z,0.80
2019-05-09T17:51:48.233Z,0.90
2019-05-09T17:54:18.297Z,1.23
2019-05-09T17:56:48.399Z,1.00
2019-05-09T17:59:18.453Z,0.80
2019-05-09T18:01:48.343Z,1.10
2019-05-09T18:04:18.091Z,0.90
2019-05-09T18:06:48.961Z,1.10
2019-05-09T18:09:19.084Z,1.30
2019-05-09T18:11:48.449Z,1.07
2019-05-09T18:14:18.539Z,1.00
2019-05-09T18:16:48.040Z,1.13
2019-05-09T18:19:17.906Z,1.10
2019-05-09T18:21:50.932Z,1.00
2019-05-09T18:24:18.105Z,1.33
2019-05-09T18:26:47.525Z,1.00
2019-05-09T18:29:18.097Z,1.03
2019-05-09T18:32:18.560Z,1.00
2019-05-09T18:34:48.629Z,1.20
2019-05-09T18:37:17.986Z,0.90
2019-05-09T18:39:48.438Z,0.90
2019-05-09T18:42:17.970Z,1.30
2019-05-09T18:44:47.684Z,1.20
2019-05-09T18:47:18.502Z,1.17
2019-05-09T18:49:47.845Z,1.33
2019-05-09T18:52:17.128Z,1.37
2019-05-09T18:54:46.338Z,1.50
2019-05-09T18:57:15.664Z,1.20
2019-05-09T18:59:44.894Z,1.60
2019-05-09T19:02:14.159Z,1.80
2019-05-09T19:04:43.378Z,1.60
2019-05-09T19:07:22.019Z,1.80
2019-05-09T19:09:43.764Z,1.53
2019-05-09T19:12:12.967Z,1.50
2019-05-09T19:14:43.449Z,1.27
2019-05-09T19:17:41.019Z,1.40
2019-05-09T19:20:21.193Z,1.63
2019-05-09T19:22:50.516Z,1.50
2019-05-09T19:25:19.722Z,1.30
2019-05-09T19:27:48.960Z,1.33
2019-05-09T19:30:18.380Z,1.00
2019-05-09T19:32:47.570Z,1.50
2019-05-09T19:35:16.815Z,1.50
2019-05-09T19:37:46.016Z,1.40
2019-05-09T19:40:19.983Z,1.60
2019-05-09T19:42:46.304Z,1.40
2019-05-09T19:45:15.929Z,1.80
2019-05-09T19:47:45.122Z,1.63
2019-05-09T19:50:14.644Z,1.70
2019-05-09T19:52:43.924Z,1.63
2019-05-09T19:55:13.230Z,1.63
2019-05-09T19:57:42.531Z,1.70
2019-05-09T20:00:13.237Z,1.40
2019-05-09T20:02:42.583Z,1.50
2019-05-09T20:05:12.500Z,1.30
2019-05-09T20:07:41.692Z,1.30
2019-05-09T20:10:29.064Z,1.40
2019-05-09T20:13:13.827Z,1.83
2019-05-09T20:15:44.124Z,1.70
2019-05-09T20:18:14.115Z,1.60
2019-05-09T20:20:43.318Z,1.60
2019-05-09T20:23:12.561Z,1.60
2019-05-09T20:25:42.555Z,1.60
2019-05-09T20:28:11.795Z,1.40
2019-05-09T20:30:41.026Z,1.70
2019-05-09T20:33:10.211Z,1.63
2019-05-09T20:35:39.638Z,1.50
2019-05-09T20:38:09.031Z,1.70
2019-05-09T20:40:38.844Z,1.50
2019-05-09T20:43:08.233Z,1.60
2019-05-09T20:45:37.657Z,2.53
2019-05-09T20:48:07.062Z,2.03
2019-05-09T20:50:36.475Z,1.70
2019-05-09T20:53:09.526Z,1.20
2019-05-09T20:55:36.913Z,1.37
2019-05-09T20:58:06.303Z,1.53
2019-05-09T21:00:35.719Z,1.50
2019-05-09T21:03:08.061Z,1.23
2019-05-09T21:05:37.250Z,1.60
2019-05-09T21:08:06.616Z,2.37
2019-05-09T21:10:36.019Z,2.20
2019-05-09T21:13:05.424Z,1.93
2019-05-09T21:15:34.823Z,1.73
2019-05-09T21:18:04.298Z,1.57
2019-05-09T21:20:33.686Z,1.50
2019-05-09T21:23:03.072Z,2.03
2019-05-09T21:25:33.408Z,1.30
2019-05-09T21:28:03.185Z,1.93
2019-05-09T21:30:32.585Z,1.70
2019-05-09T21:33:01.952Z,2.70
2019-05-09T21:35:31.262Z,1.67
2019-05-09T21:38:00.483Z,1.67
2019-05-09T21:40:29.685Z,2.30
2019-05-09T21:42:58.909Z,2.23
2019-05-09T21:45:28.147Z,2.27
2019-05-09T21:47:57.330Z,2.30
2019-05-09T21:50:26.564Z,1.80
2019-05-09T21:52:55.772Z,2.13
2019-05-09T21:55:24.970Z,2.00
2019-05-09T21:57:54.186Z,2.33
2019-05-09T22:00:29.108Z,1.83
2019-05-09T22:02:58.323Z,1.70
2019-05-09T22:05:27.525Z,1.83
2019-05-09T22:07:56.727Z,1.73
2019-05-09T22:10:25.960Z,2.10
2019-05-09T22:12:55.237Z,2.37
2019-05-09T22:15:24.540Z,1.93
2019-05-09T22:17:53.748Z,2.23
2019-05-09T22:20:23.073Z,2.10
2019-05-09T22:22:52.354Z,2.17
2019-05-09T22:25:21.595Z,2.03
2019-05-09T22:27:50.777Z,2.43
2019-05-09T22:30:20.657Z,2.07
2019-05-09T22:32:49.885Z,2.27
2019-05-09T22:35:19.125Z,2.20
2019-05-09T22:37:48.304Z,2.40
2019-05-09T22:40:17.624Z,2.17
2019-05-09T22:42:46.877Z,2.20
2019-05-09T22:45:16.201Z,2.33
2019-05-09T22:47:45.388Z,4.10
2019-05-09T22:50:14.586Z,4.27
2019-05-09T22:52:44.767Z,3.20
2019-05-09T22:55:14.072Z,2.80
2019-05-09T22:57:43.284Z,2.23
2019-05-09T23:00:13.440Z,2.40
2019-05-09T23:02:42.637Z,2.40
2019-05-09T23:05:11.868Z,2.70
2019-05-09T23:07:41.113Z,2.40
2019-05-09T23:10:10.342Z,2.33
2019-05-09T23:12:39.568Z,2.63
2019-05-09T23:15:10.662Z,2.63
2019-05-09T23:17:39.899Z,2.93
2019-05-09T23:20:14.008Z,2.70
2019-05-09T23:22:43.338Z,2.43
2019-05-09T23:25:12.592Z,2.97
2019-05-09T23:27:41.869Z,2.83
2019-05-09T23:30:12.744Z,3.57
2019-05-09T23:32:44.400Z,2.90
2019-05-09T23:35:13.781Z,2.90
2019-05-09T23:37:43.122Z,2.93
2019-05-09T23:40:12.758Z,2.73
2019-05-09T23:42:41.980Z,3.03
2019-05-09T23:45:11.373Z,3.03
2019-05-09T23:47:40.607Z,3.03
2019-05-09T23:50:09.884Z,3.43
2019-05-09T23:52:39.172Z,2.80
2019-05-09T23:55:26.389Z,2.83
2019-05-09T23:58:13.796Z,3.40
